createdAt,value
2022-10-17T00:01:16.989Z,12.16
2022-10-17T00:04:02.685Z,12.18
2022-10-17T00:06:48.382Z,12.20
2022-10-17T00:09:34.219Z,12.15
2022-10-17T00:12:19.938Z,12.16
2022-10-17T00:15:07.248Z,12.15
2022-10-17T00:17:53.111Z,12.13
2022-10-17T00:20:39.033Z,12.08
2022-10-17T00:23:27.471Z,12.07
2022-10-17T00:26:13.421Z,12.03
2022-10-17T00:28:59.276Z,12.05
2022-10-17T00:31:45.336Z,12.03
2022-10-17T00:34:31.233Z,12.00
2022-10-17T00:37:17.253Z,11.95
2022-10-17T00:40:04.035Z,11.92
2022-10-17T00:42:53.065Z,11.93
2022-10-17T00:45:39.062Z,11.91
2022-10-17T00:48:26.096Z,11.87
2022-10-17T00:51:11.774Z,11.84
2022-10-17T00:54:00.410Z,11.75
2022-10-17T00:56:47.230Z,11.76
2022-10-17T00:59:34.580Z,11.71
2022-10-17T01:02:22.224Z,11.67
2022-10-17T01:05:09.906Z,11.64
2022-10-17T01:07:56.447Z,11.61
2022-10-17T01:11:12.829Z,11.53
2022-10-17T01:14:04.440Z,11.52
2022-10-17T01:16:57.258Z,11.49
2022-10-17T01:20:07.394Z,11.47
2022-10-17T01:23:05.339Z,11.45
2022-10-17T01:26:13.039Z,11.42
2022-10-17T01:29:37.499Z,11.37
2022-10-17T01:32:34.672Z,11.32
2022-10-17T01:35:32.830Z,11.30
2022-10-17T01:38:25.433Z,11.26
2022-10-17T01:41:39.938Z,11.21
2022-10-17T01:44:46.633Z,11.25
2022-10-17T01:47:33.872Z,11.20
2022-10-17T01:50:26.281Z,11.20
2022-10-17T01:53:15.970Z,11.19
2022-10-17T01:56:03.472Z,11.13
2022-10-17T01:58:57.268Z,11.16
2022-10-17T02:01:43.681Z,11.11
2022-10-17T02:04:29.897Z,11.10
2022-10-17T02:07:16.387Z,11.10
2022-10-17T02:10:09.158Z,11.13
2022-10-17T02:13:21.478Z,11.12
2022-10-17T02:16:22.602Z,11.12
2022-10-17T02:19:28.441Z,11.06
2022-10-17T02:22:33.076Z,11.10
2022-10-17T02:25:49.251Z,11.06
2022-10-17T02:28:47.904Z,11.02
2022-10-17T02:31:42.121Z,11.03
2022-10-17T02:34:36.082Z,11.01
2022-10-17T02:37:25.930Z,10.97
2022-10-17T02:40:14.433Z,11.02
2022-10-17T02:43:01.108Z,10.97
2022-10-17T02:45:48.738Z,10.94
2022-10-17T02:48:39.130Z,11.02
2022-10-17T02:51:37.329Z,11.02
2022-10-17T02:54:42.025Z,11.01
2022-10-17T02:57:31.036Z,11.01
2022-10-17T03:00:17.982Z,11.02
2022-10-17T03:03:20.017Z,11.02
2022-10-17T03:06:05.778Z,11.03
2022-10-17T03:08:51.688Z,10.95
2022-10-17T03:11:37.753Z,11.00
2022-10-17T03:14:25.729Z,11.02
2022-10-17T03:17:11.700Z,11.04
2022-10-17T03:19:58.564Z,11.03
2022-10-17T03:22:44.466Z,10.99
2022-10-17T03:25:30.517Z,10.94
2022-10-17T03:28:17.096Z,10.94
2022-10-17T03:31:15.132Z,10.97
2022-10-17T03:34:03.128Z,10.95
2022-10-17T03:36:49.367Z,10.92
2022-10-17T03:39:35.255Z,10.99
2022-10-17T03:42:21.541Z,10.94
2022-10-17T03:45:08.219Z,11.03
2022-10-17T03:47:55.080Z,11.04
2022-10-17T03:50:40.811Z,11.05
2022-10-17T03:53:28.603Z,11.05
2022-10-17T03:56:18.150Z,11.04
2022-10-17T03:59:14.305Z,11.05
2022-10-17T04:02:02.449Z,11.00
2022-10-17T04:04:48.465Z,11.00
2022-10-17T04:07:38.391Z,10.99
2022-10-17T04:10:25.221Z,11.00
2022-10-17T04:13:10.930Z,11.01
2022-10-17T04:16:05.428Z,11.04
2022-10-17T04:18:56.507Z,11.03
2022-10-17T04:21:44.587Z,11.06
2022-10-17T04:24:30.334Z,11.08
2022-10-17T04:27:30.701Z,11.10
2022-10-17T04:30:17.499Z,11.11
2022-10-17T04:33:04.059Z,11.11
2022-10-17T04:36:08.105Z,11.15
2022-10-17T04:38:54.841Z,11.16
2022-10-17T04:41:40.656Z,11.20
2022-10-17T04:44:26.991Z,11.22
2022-10-17T04:47:12.775Z,11.24
2022-10-17T04:49:58.534Z,11.25
2022-10-17T04:52:44.583Z,11.27
2022-10-17T04:55:31.485Z,11.25
2022-10-17T04:58:17.491Z,11.24
2022-10-17T05:01:08.081Z,11.29
2022-10-17T05:03:56.024Z,11.30
2022-10-17T05:06:42.234Z,11.30
2022-10-17T05:10:03.839Z,11.28
2022-10-17T05:12:51.306Z,11.26
2022-10-17T05:15:40.017Z,11.29
2022-10-17T05:18:25.933Z,11.27
2022-10-17T05:21:12.059Z,11.30
2022-10-17T05:23:58.274Z,11.27
2022-10-17T05:26:44.326Z,11.31
2022-10-17T05:29:31.090Z,11.30
2022-10-17T05:32:25.500Z,11.32
2022-10-17T05:35:11.237Z,11.35
2022-10-17T05:37:58.376Z,11.37
2022-10-17T05:40:44.597Z,11.36
2022-10-17T05:43:31.286Z,11.42
2022-10-17T05:46:18.204Z,11.44
2022-10-17T05:49:14.718Z,11.47
2022-10-17T05:52:09.843Z,11.51
2022-10-17T05:55:10.062Z,11.53
2022-10-17T05:57:56.513Z,11.56
2022-10-17T06:00:44.260Z,11.59
2022-10-17T06:03:30.762Z,11.52
2022-10-17T06:06:18.571Z,11.64
2022-10-17T06:09:06.294Z,11.64
2022-10-17T06:11:55.546Z,11.75
2022-10-17T06:14:41.295Z,11.75
2022-10-17T06:17:28.219Z,11.83
2022-10-17T06:20:14.469Z,11.81
2022-10-17T06:23:00.518Z,11.90
2022-10-17T06:26:03.199Z,11.95
2022-10-17T06:28:49.537Z,11.98
2022-10-17T06:31:35.474Z,12.01
2022-10-17T06:34:21.709Z,12.04
2022-10-17T06:37:08.037Z,12.11
2022-10-17T06:39:56.305Z,12.09
2022-10-17T06:42:43.040Z,12.21
2022-10-17T06:46:05.092Z,12.31
2022-10-17T06:48:56.229Z,12.33
2022-10-17T06:52:01.215Z,12.45
2022-10-17T06:58:12.829Z,12.59
2022-10-17T07:01:14.934Z,12.65
2022-10-17T07:04:03.248Z,12.71
2022-10-17T07:06:50.383Z,12.77
2022-10-17T07:09:40.143Z,12.83
2022-10-17T07:12:27.064Z,12.87
2022-10-17T07:15:13.320Z,12.99
2022-10-17T07:17:59.522Z,13.07
2022-10-17T07:20:53.288Z,13.12
2022-10-17T07:23:39.957Z,13.13
2022-10-17T07:26:25.967Z,13.24
2022-10-17T07:29:12.374Z,13.38
2022-10-17T07:32:08.630Z,13.46
2022-10-17T07:34:54.559Z,13.59
2022-10-17T07:37:40.769Z,13.64
2022-10-17T07:40:26.591Z,13.76
2022-10-17T07:43:12.415Z,13.88
2022-10-17T07:45:58.094Z,13.96
2022-10-17T07:48:44.332Z,14.06
2022-10-17T07:51:30.150Z,14.12
2022-10-17T07:54:15.970Z,14.12
2022-10-17T07:57:01.941Z,14.16
2022-10-17T07:59:48.314Z,14.15
2022-10-17T08:02:34.379Z,14.15
2022-10-17T08:05:20.237Z,14.12
2022-10-17T08:08:06.086Z,14.09
2022-10-17T08:10:51.958Z,14.06
2022-10-17T08:13:37.730Z,14.02
2022-10-17T08:16:23.521Z,14.00
2022-10-17T08:19:11.438Z,13.95
2022-10-17T08:21:58.426Z,14.01
2022-10-17T08:24:45.403Z,13.98
2022-10-17T08:27:33.678Z,14.03
2022-10-17T08:30:19.323Z,14.02
2022-10-17T08:33:05.104Z,14.11
2022-10-17T08:35:50.787Z,14.13
2022-10-17T08:38:38.514Z,14.17
2022-10-17T08:41:42.847Z,14.31
2022-10-17T08:44:48.340Z,14.40
2022-10-17T08:47:40.234Z,14.50
2022-10-17T08:50:42.969Z,14.63
2022-10-17T08:53:49.315Z,14.76
2022-10-17T08:56:48.456Z,14.90
2022-10-17T08:59:35.146Z,15.03
2022-10-17T09:02:41.255Z,15.18
2022-10-17T09:05:28.513Z,15.36
2022-10-17T09:08:35.390Z,15.53
2022-10-17T09:11:52.635Z,15.73
2022-10-17T09:14:43.133Z,15.96
2022-10-17T09:17:41.425Z,16.17
2022-10-17T09:20:45.362Z,16.33
2022-10-17T09:23:46.808Z,16.49
2022-10-17T09:26:32.675Z,16.67
2022-10-17T09:29:23.819Z,16.84
2022-10-17T09:32:23.002Z,17.01
2022-10-17T09:35:15.394Z,17.20
2022-10-17T09:38:01.236Z,17.36
2022-10-17T10:34:22.195Z,19.72
2022-10-17T10:37:23.784Z,19.98
2022-10-17T10:40:18.974Z,20.29
2022-10-17T10:43:06.140Z,20.62
2022-10-17T10:45:52.683Z,20.94
2022-10-17T10:48:54.402Z,21.25
2022-10-17T10:51:43.869Z,21.60
2022-10-17T10:54:34.805Z,21.88
2022-10-17T10:57:21.756Z,22.22
2022-10-17T11:00:17.604Z,22.57
2022-10-17T11:03:16.738Z,22.95
2022-10-17T11:06:13.346Z,23.30
2022-10-17T11:09:33.900Z,23.68
2022-10-17T11:12:28.210Z,24.21
2022-10-17T11:15:22.362Z,24.76
2022-10-17T11:18:26.891Z,25.32
2022-10-17T11:21:23.934Z,26.12
2022-10-17T11:24:26.738Z,26.84
2022-10-17T11:27:19.148Z,27.67
2022-10-17T11:30:07.168Z,28.43
2022-10-17T11:32:59.066Z,29.14
2022-10-17T11:35:46.556Z,29.84
2022-10-17T11:38:53.046Z,30.54
2022-10-17T11:41:47.298Z,31.13
2022-10-17T11:44:37.623Z,31.67
2022-10-17T11:47:54.244Z,32.23
2022-10-17T11:53:57.077Z,33.21
2022-10-17T11:57:32.861Z,33.64
2022-10-17T12:00:46.149Z,33.97
2022-10-17T12:03:45.761Z,34.31
2022-10-17T12:06:40.346Z,34.56
2022-10-17T12:09:26.190Z,34.85
2022-10-17T12:12:25.505Z,35.09
2022-10-17T12:15:14.425Z,35.32
2022-10-17T12:18:04.163Z,35.55
2022-10-17T12:20:59.982Z,35.67
2022-10-17T12:23:54.916Z,35.92
2022-10-17T12:26:41.044Z,36.16
2022-10-17T12:29:29.272Z,36.47
2022-10-17T12:32:16.577Z,36.76
2022-10-17T12:35:02.547Z,37.09
2022-10-17T12:37:48.572Z,37.42
2022-10-17T12:40:37.280Z,37.72
2022-10-17T12:43:29.205Z,37.95
2022-10-17T12:46:46.748Z,38.32
2022-10-17T12:49:54.368Z,38.67
2022-10-17T12:52:40.219Z,38.91
2022-10-17T12:55:26.119Z,39.20
2022-10-17T12:58:14.898Z,39.48
2022-10-17T13:04:10.032Z,39.84
2022-10-17T13:06:58.663Z,39.94
2022-10-17T13:09:45.203Z,40.01
2022-10-17T13:12:34.049Z,40.15
2022-10-17T13:15:22.792Z,40.23
2022-10-17T13:18:19.213Z,40.42
2022-10-17T13:21:13.839Z,40.42
2022-10-17T13:24:01.218Z,40.36
2022-10-17T13:26:47.057Z,40.40
2022-10-17T13:29:33.313Z,40.35
2022-10-17T13:32:19.389Z,40.24
2022-10-17T13:35:09.900Z,40.19
2022-10-17T13:37:56.241Z,40.01
2022-10-17T13:40:49.945Z,39.93
2022-10-17T13:43:36.559Z,39.72
2022-10-17T13:46:37.824Z,39.65
2022-10-17T13:49:34.798Z,39.42
2022-10-17T13:52:23.703Z,39.20
2022-10-17T13:55:17.612Z,38.95
2022-10-17T13:58:15.175Z,38.64
2022-10-17T14:01:01.225Z,38.22
2022-10-17T14:03:49.856Z,37.86
2022-10-17T14:06:47.603Z,37.41
2022-10-17T14:09:36.833Z,36.77
2022-10-17T14:12:22.742Z,35.97
2022-10-17T14:15:13.974Z,35.10
2022-10-17T14:18:07.543Z,33.97
2022-10-17T14:21:32.135Z,32.87
2022-10-17T14:24:23.841Z,31.90
2022-10-17T14:27:29.056Z,30.90
2022-10-17T14:30:55.338Z,30.02
2022-10-17T14:33:46.869Z,29.15
2022-10-17T14:36:38.890Z,28.41
2022-10-17T14:39:26.405Z,27.78
2022-10-17T14:42:20.522Z,27.15
2022-10-17T14:45:11.312Z,26.68
2022-10-17T14:48:10.436Z,26.19
2022-10-17T14:51:17.500Z,25.72
2022-10-17T14:54:30.623Z,25.26
2022-10-17T14:57:25.593Z,24.85
2022-10-17T15:00:19.081Z,24.50
2022-10-17T15:03:05.076Z,24.10
2022-10-17T15:05:51.818Z,23.86
2022-10-17T15:08:37.657Z,23.62
2022-10-17T15:11:23.612Z,23.42
2022-10-17T15:14:09.687Z,23.14
2022-10-17T15:16:55.455Z,22.96
2022-10-17T15:19:41.424Z,22.71
2022-10-17T15:22:27.794Z,22.53
2022-10-17T15:25:14.198Z,22.38
2022-10-17T15:28:00.179Z,22.22
2022-10-17T15:30:45.896Z,22.06
2022-10-17T15:33:31.667Z,21.89
2022-10-17T15:36:25.888Z,21.78
2022-10-17T15:39:12.070Z,21.59
2022-10-17T15:41:59.202Z,21.50
2022-10-17T15:44:49.476Z,21.38
2022-10-17T15:47:35.842Z,21.24
2022-10-17T15:50:21.940Z,21.13
2022-10-17T15:53:12.059Z,20.93
2022-10-17T15:55:59.142Z,20.85
2022-10-17T15:58:44.866Z,20.71
2022-10-17T16:01:31.766Z,20.60
2022-10-17T16:04:18.557Z,20.43
2022-10-17T16:07:04.606Z,20.31
2022-10-17T16:09:50.583Z,20.18
2022-10-17T16:12:41.224Z,20.05
2022-10-17T16:15:28.201Z,19.93
2022-10-17T16:18:14.372Z,19.79
2022-10-17T16:21:00.161Z,19.60
2022-10-17T16:23:46.053Z,19.53
2022-10-17T16:26:32.210Z,19.36
2022-10-17T16:29:18.074Z,19.27
2022-10-17T16:32:07.190Z,19.05
2022-10-17T16:34:53.157Z,18.98
2022-10-17T16:37:38.855Z,18.91
2022-10-17T16:40:24.613Z,18.74
2022-10-17T16:43:12.869Z,18.67
2022-10-17T16:45:58.946Z,18.55
2022-10-17T16:48:45.614Z,18.45
2022-10-17T16:51:33.726Z,18.29
2022-10-17T16:54:19.697Z,18.23
2022-10-17T16:57:06.204Z,18.12
2022-10-17T16:59:52.682Z,18.02
2022-10-17T17:02:38.914Z,17.94
2022-10-17T17:05:24.872Z,17.82
2022-10-17T17:08:12.650Z,17.72
2022-10-17T17:10:59.275Z,17.63
2022-10-17T17:13:45.117Z,17.51
2022-10-17T17:16:32.710Z,17.42
2022-10-17T17:19:21.906Z,17.30
2022-10-17T17:22:08.078Z,17.25
2022-10-17T17:24:54.095Z,17.17
2022-10-17T17:27:39.885Z,17.05
2022-10-17T17:30:25.566Z,17.00
2022-10-17T17:33:12.421Z,16.91
2022-10-17T17:36:01.239Z,16.83
2022-10-17T17:38:50.345Z,16.73
2022-10-17T17:41:36.511Z,16.65
2022-10-17T17:44:22.510Z,16.54
2022-10-17T17:47:08.235Z,16.47
2022-10-17T17:49:54.042Z,16.42
2022-10-17T17:52:42.177Z,16.33
2022-10-17T17:55:28.206Z,16.28
2022-10-17T17:58:21.512Z,16.21
2022-10-17T18:01:14.846Z,16.16
2022-10-17T18:04:00.831Z,16.08
2022-10-17T18:06:46.738Z,15.95
2022-10-17T18:09:32.516Z,15.88
2022-10-17T18:12:18.308Z,15.77
2022-10-17T18:15:05.170Z,15.67
2022-10-17T18:17:50.828Z,15.53
2022-10-17T18:20:43.294Z,15.41
2022-10-17T18:23:29.222Z,15.33
2022-10-17T18:26:16.076Z,15.26
2022-10-17T18:29:02.349Z,15.17
2022-10-17T18:31:48.543Z,15.11
2022-10-17T18:34:34.195Z,15.02
2022-10-17T18:37:20.024Z,14.95
2022-10-17T18:40:06.616Z,14.77
2022-10-17T18:42:52.674Z,14.80
2022-10-17T18:45:38.710Z,14.74
2022-10-17T18:48:25.117Z,14.66
2022-10-17T18:51:10.879Z,14.61
2022-10-17T18:53:58.764Z,14.55
2022-10-17T18:56:45.459Z,14.46
2022-10-17T18:59:31.147Z,14.45
2022-10-17T19:02:17.085Z,14.40
2022-10-17T19:05:03.370Z,14.36
2022-10-17T19:07:50.318Z,14.33
2022-10-17T19:10:37.640Z,14.21
2022-10-17T19:13:23.877Z,14.15
2022-10-17T19:16:35.537Z,14.12
2022-10-17T19:19:24.134Z,14.06
2022-10-17T19:22:09.925Z,13.99
2022-10-17T19:24:55.827Z,13.90
2022-10-17T19:27:41.817Z,13.78
2022-10-17T19:30:28.073Z,13.73
2022-10-17T19:33:14.403Z,13.64
2022-10-17T19:36:03.481Z,13.62
2022-10-17T19:38:49.553Z,13.59
2022-10-17T19:41:36.480Z,13.56
2022-10-17T19:44:22.699Z,13.49
2022-10-17T19:47:08.778Z,13.47
2022-10-17T19:49:54.597Z,13.39
2022-10-17T19:52:40.350Z,13.35
2022-10-17T19:55:26.078Z,13.30
2022-10-17T19:58:12.011Z,13.26
2022-10-17T20:01:01.247Z,13.18
2022-10-17T20:03:47.582Z,13.11
2022-10-17T20:06:34.223Z,13.06
2022-10-17T20:09:20.072Z,12.99
2022-10-17T20:12:06.122Z,12.94
2022-10-17T20:14:51.914Z,12.88
2022-10-17T20:17:37.982Z,12.83
2022-10-17T20:20:24.143Z,12.80
2022-10-17T20:23:10.451Z,12.76
2022-10-17T20:26:13.500Z,12.73
2022-10-17T20:29:08.907Z,12.64
2022-10-17T20:31:54.912Z,12.63
2022-10-17T20:34:41.925Z,12.63
2022-10-17T20:37:27.906Z,12.62
2022-10-17T20:40:34.021Z,12.59
2022-10-17T20:43:19.932Z,12.51
2022-10-17T20:46:22.956Z,12.51
2022-10-17T20:49:15.069Z,12.43
2022-10-17T20:52:01.618Z,12.38
2022-10-17T20:54:47.449Z,12.35
2022-10-17T20:57:33.469Z,12.28
2022-10-17T21:00:19.278Z,12.26
2022-10-17T21:03:06.155Z,12.23
2022-10-17T21:05:51.927Z,12.18
2022-10-17T21:08:37.779Z,12.12
2022-10-17T21:11:26.185Z,12.09
2022-10-17T21:14:12.587Z,12.07
2022-10-17T21:17:02.385Z,12.03
2022-10-17T21:19:50.746Z,11.96
2022-10-17T21:22:36.769Z,11.91
2022-10-17T21:25:22.645Z,11.90
2022-10-17T21:28:08.334Z,11.84
2022-10-17T21:30:54.152Z,11.81
2022-10-17T21:33:40.987Z,11.74
2022-10-17T21:36:27.865Z,11.68
2022-10-17T21:39:14.835Z,11.63
2022-10-17T21:42:00.936Z,11.60
2022-10-17T21:44:46.617Z,11.54
2022-10-17T21:47:32.475Z,11.52
2022-10-17T21:50:18.309Z,11.48
2022-10-17T21:53:04.202Z,11.42
2022-10-17T21:55:49.853Z,11.39
2022-10-17T21:58:35.587Z,11.34
2022-10-17T22:01:29.110Z,11.33
2022-10-17T22:04:17.037Z,11.30
2022-10-17T22:07:03.090Z,11.27
2022-10-17T22:09:48.794Z,11.21
2022-10-17T22:12:34.483Z,11.18
2022-10-17T22:15:20.256Z,11.15
2022-10-17T22:18:05.835Z,11.11
2022-10-17T22:20:51.595Z,11.10
2022-10-17T22:23:38.324Z,11.06
2022-10-17T22:26:24.152Z,11.00
2022-10-17T22:29:10.520Z,10.99
2022-10-17T22:31:56.633Z,10.97
2022-10-17T22:34:42.448Z,10.89
2022-10-17T22:37:28.334Z,10.86
2022-10-17T22:40:14.658Z,10.81
2022-10-17T22:43:00.745Z,10.73
2022-10-17T22:45:54.325Z,10.73
2022-10-17T22:48:40.083Z,10.69
2022-10-17T22:51:26.257Z,10.67
2022-10-17T22:54:12.348Z,10.65
2022-10-17T22:56:58.298Z,10.61
2022-10-17T22:59:44.001Z,10.61
2022-10-17T23:02:30.269Z,10.54
2022-10-17T23:05:16.214Z,10.56
2022-10-17T23:08:02.064Z,10.53
2022-10-17T23:10:48.089Z,10.51
2022-10-17T23:13:34.133Z,10.49
2022-10-17T23:16:19.975Z,10.46
2022-10-17T23:19:05.708Z,10.40
2022-10-17T23:21:51.434Z,10.39
2022-10-17T23:24:37.153Z,10.36
2022-10-17T23:27:23.002Z,10.30
2022-10-17T23:30:09.468Z,10.21
2022-10-17T23:32:55.214Z,10.14
2022-10-17T23:35:41.809Z,10.13
2022-10-17T23:38:27.549Z,10.08
2022-10-17T23:41:13.575Z,10.07
2022-10-17T23:44:00.121Z,10.03
2022-10-17T23:46:46.634Z,10.02
2022-10-17T23:49:32.684Z,10.01
2022-10-17T23:52:18.708Z,9.94
2022-10-17T23:55:04.906Z,9.95
2022-10-17T23:57:50.596Z,9.92
